Time;durP1;ratioP1;P1;durP2;ratioP2;P2;SDS_P1;SDS_P2;PMS_P1;PMS_P2;Temp;Humidity;BMP_temperature;BMP_pressure;BME280_temperature;BME280_humidity;BME280_pressure;Samples;Min_cycle;Max_cycle;Signal;HPM_P1;HPM_P2
2023/10/09 00:01:14;;;;;;;32.92;13.00;;;13.30;99.90;;;;;;5071182;28;20324;-65
2023/10/09 00:03:43;;;;;;;29.92;13.18;;;13.30;99.90;;;;;;5072755;28;20021;-65
2023/10/09 00:06:13;;;;;;;24.15;11.30;;;13.20;99.90;;;;;;5072627;28;20477;-65
2023/10/09 00:08:44;;;;;;;28.30;10.93;;;13.10;99.90;;;;;;5072066;28;20685;-65
2023/10/09 00:11:19;;;;;;;27.25;11.80;;;13.10;99.90;;;;;;5072497;28;20016;-65
2023/10/09 00:13:49;;;;;;;29.85;13.07;;;13.10;99.90;;;;;;5077351;28;20505;-65
2023/10/09 00:16:16;;;;;;;20.80;11.70;;;13.00;99.90;;;;;;5068398;28;20111;-66
2023/10/09 00:18:46;;;;;;;26.83;10.95;;;13.00;99.90;;;;;;5070382;28;20071;-65
2023/10/09 00:21:23;;;;;;;26.45;11.80;;;13.00;99.90;;;;;;5070693;28;20453;-65
2023/10/09 00:23:59;;;;;;;21.77;10.50;;;13.00;99.90;;;;;;5068308;28;20033;-65
2023/10/09 00:26:26;;;;;;;34.17;12.77;;;13.00;99.90;;;;;;5068786;28;20489;-65
2023/10/09 00:28:52;;;;;;;24.08;11.13;;;13.00;99.90;;;;;;5070233;28;20029;-65
2023/10/09 00:31:33;;;;;;;31.13;11.48;;;13.00;99.90;;;;;;5071369;28;20029;-65
2023/10/09 00:34:18;;;;;;;26.67;11.55;;;13.00;99.90;;;;;;5069017;28;20439;-65
2023/10/09 00:36:50;;;;;;;28.95;11.52;;;13.00;99.90;;;;;;5069569;28;20153;-64
2023/10/09 00:39:33;;;;;;;31.67;12.23;;;13.00;99.90;;;;;;5066191;28;20021;-65
2023/10/09 00:42:00;;;;;;;24.88;11.45;;;12.90;99.90;;;;;;5070679;28;20103;-65
2023/10/09 00:44:37;;;;;;;27.60;11.40;;;12.90;99.90;;;;;;5069571;28;20059;-65
2023/10/09 00:47:20;;;;;;;30.75;12.35;;;12.90;99.90;;;;;;5068398;28;20036;-66
2023/10/09 00:50:01;;;;;;;25.35;10.35;;;12.80;99.90;;;;;;5062102;28;20037;-65
2023/10/09 00:52:43;;;;;;;27.52;10.35;;;12.80;99.90;;;;;;5068852;28;20035;-65
2023/10/09 00:55:14;;;;;;;35.53;11.73;;;12.80;99.90;;;;;;5085030;28;20415;-64
2023/10/09 00:57:47;;;;;;;27.65;11.15;;;12.80;99.90;;;;;;5070852;28;20021;-65
2023/10/09 01:00:31;;;;;;;20.13;10.02;;;12.90;99.90;;;;;;5070769;28;20028;-65
2023/10/09 01:05:57;;;;;;;23.70;10.00;;;12.80;99.90;;;;;;5064531;28;20247;-65
2023/10/09 01:08:34;;;;;;;21.90;9.65;;;12.70;99.90;;;;;;5067924;28;20028;-65
2023/10/09 01:11:09;;;;;;;20.45;10.10;;;12.60;99.90;;;;;;5070779;28;20123;-65
2023/10/09 01:16:15;;;;;;;28.25;11.18;;;12.50;99.90;;;;;;5072069;28;20095;-65
2023/10/09 01:18:46;;;;;;;21.23;9.25;;;12.40;99.90;;;;;;5084846;28;20024;-65
2023/10/09 01:21:14;;;;;;;24.35;9.55;;;12.30;99.90;;;;;;5072001;28;20109;-66
2023/10/09 01:26:34;;;;;;;30.98;12.02;;;12.20;99.90;;;;;;5064061;28;20480;-65
2023/10/09 01:29:00;;;;;;;28.63;12.38;;;12.30;99.90;;;;;;5081162;28;20385;-65
2023/10/09 01:31:27;;;;;;;29.75;12.15;;;12.30;99.90;;;;;;5064986;28;20674;-65
2023/10/09 01:33:59;;;;;;;24.08;11.45;;;12.40;99.90;;;;;;5062756;28;20742;-65
2023/10/09 01:36:34;;;;;;;21.10;10.10;;;12.40;99.90;;;;;;5060015;28;20035;-65
2023/10/09 01:39:06;;;;;;;26.15;11.40;;;12.40;99.90;;;;;;5062456;28;20389;-64
2023/10/09 01:41:34;;;;;;;;;;;12.40;99.90;;;;;;5063756;28;20040;-65
2023/10/09 01:44:11;;;;;;;29.75;12.35;;;12.50;99.90;;;;;;5065536;28;19908;-65
2023/10/09 01:46:37;;;;;;;29.45;13.30;;;12.50;99.90;;;;;;5065935;28;20140;-65
2023/10/09 01:49:17;;;;;;;30.20;11.63;;;12.50;99.90;;;;;;5068834;28;20104;-65
2023/10/09 01:51:42;;;;;;;23.25;9.85;;;12.40;99.90;;;;;;5069471;28;20028;-65
2023/10/09 01:54:08;;;;;;;27.52;11.98;;;12.50;99.90;;;;;;5069434;28;20036;-65
2023/10/09 01:56:38;;;;;;;22.73;10.00;;;12.50;99.90;;;;;;5068099;28;20021;-66
2023/10/09 01:59:05;;;;;;;28.23;10.70;;;12.50;99.90;;;;;;5066190;28;20021;-65
2023/10/09 02:01:33;;;;;;;22.67;9.93;;;12.60;99.90;;;;;;5070754;28;20028;-65
2023/10/09 02:04:05;;;;;;;23.13;10.20;;;12.50;99.90;;;;;;5070611;28;20043;-65
2023/10/09 02:06:32;;;;;;;24.75;10.63;;;12.50;99.90;;;;;;5070554;28;20030;-65
2023/10/09 02:08:59;;;;;;;24.15;9.60;;;12.60;99.90;;;;;;5068722;28;20025;-65
2023/10/09 02:11:45;;;;;;;22.65;9.65;;;12.60;99.90;;;;;;5070145;28;20469;-66
2023/10/09 02:14:20;;;;;;;24.58;9.48;;;12.60;99.90;;;;;;5067445;28;20040;-65
2023/10/09 02:17:02;;;;;;;21.00;9.45;;;12.60;99.90;;;;;;5064472;28;20375;-65
2023/10/09 02:19:34;;;;;;;23.13;9.32;;;12.60;99.90;;;;;;5069124;28;20056;-65
2023/10/09 02:22:12;;;;;;;18.40;9.50;;;12.60;99.90;;;;;;5069435;28;20024;-64
2023/10/09 02:24:49;;;;;;;18.77;7.93;;;12.70;99.90;;;;;;5065785;28;20397;-65
2023/10/09 02:30:27;;;;;;;25.85;9.95;;;12.70;99.90;;;;;;5044388;28;20041;-65
2023/10/09 02:33:06;;;;;;;30.85;9.77;;;12.80;99.90;;;;;;5066532;28;20093;-65
2023/10/09 02:35:38;;;;;;;23.52;10.57;;;12.80;99.90;;;;;;5067863;28;20029;-65
2023/10/09 02:38:07;;;;;;;26.20;10.43;;;12.80;99.90;;;;;;5067815;28;20029;-65
2023/10/09 02:41:17;;;;;;;24.20;10.80;;;12.80;99.90;;;;;;5068637;28;20066;-65
2023/10/09 02:43:19;;;;;;;20.73;9.48;;;12.80;99.90;;;;;;5068636;28;20024;-65
2023/10/09 02:45:50;;;;;;;19.20;9.98;;;12.80;99.90;;;;;;5068367;28;20035;-65
2023/10/09 02:48:19;;;;;;;17.85;9.40;;;12.80;99.90;;;;;;5066170;28;20028;-65
2023/10/09 02:50:46;;;;;;;19.27;9.57;;;12.80;99.90;;;;;;5070122;28;20021;-65
2023/10/09 02:53:18;;;;;;;20.38;9.60;;;12.80;99.90;;;;;;5066103;28;20028;-65
2023/10/09 02:55:53;;;;;;;23.13;9.90;;;12.80;99.90;;;;;;5068037;28;20494;-65
2023/10/09 02:58:21;;;;;;;18.00;7.57;;;12.80;99.90;;;;;;5064666;28;20033;-65
2023/10/09 03:00:48;;;;;;;15.00;7.97;;;12.80;99.90;;;;;;5066893;28;20031;-65
2023/10/09 03:03:18;;;;;;;15.15;7.72;;;12.80;99.90;;;;;;5067153;28;20024;-65
2023/10/09 03:05:44;;;;;;;16.90;7.70;;;12.70;99.90;;;;;;5068131;28;20448;-65
2023/10/09 03:08:12;;;;;;;14.02;6.78;;;12.70;99.90;;;;;;5065367;28;20349;-65
2023/10/09 03:10:38;;;;;;;16.15;6.60;;;12.60;99.90;;;;;;5068261;28;20059;-65
2023/10/09 03:13:05;;;;;;;11.73;6.80;;;12.50;99.90;;;;;;5063042;28;20043;-65
2023/10/09 03:15:35;;;;;;;19.42;7.35;;;12.50;99.90;;;;;;5061905;28;20544;-65
2023/10/09 03:18:04;;;;;;;15.98;7.63;;;12.40;99.90;;;;;;5058999;28;20441;-65
2023/10/09 03:20:31;;;;;;;18.45;8.13;;;12.40;99.90;;;;;;5061543;28;20028;-65
2023/10/09 03:22:57;;;;;;;15.93;7.75;;;12.50;99.90;;;;;;5064419;28;20480;-65
2023/10/09 03:25:26;;;;;;;18.67;7.68;;;12.50;99.90;;;;;;5060100;28;20064;-65
2023/10/09 03:27:56;;;;;;;22.92;8.65;;;12.40;99.90;;;;;;5067847;28;20031;-65
2023/10/09 03:30:24;;;;;;;13.95;7.65;;;12.50;99.90;;;;;;5068607;28;20028;-66
2023/10/09 03:32:51;;;;;;;16.27;7.32;;;12.60;99.90;;;;;;5069250;28;20025;-65
2023/10/09 03:35:25;;;;;;;12.68;7.55;;;12.60;99.90;;;;;;5069710;28;20099;-65
2023/10/09 03:37:52;;;;;;;14.77;8.05;;;12.50;99.90;;;;;;5072867;28;20048;-65
2023/10/09 03:40:19;;;;;;;14.75;7.50;;;12.50;99.90;;;;;;5070916;28;20033;-64
2023/10/09 03:42:45;;;;;;;16.50;7.68;;;12.60;99.90;;;;;;5073723;28;20427;-65
2023/10/09 03:45:18;;;;;;;14.13;7.50;;;12.60;99.90;;;;;;5071617;28;20078;-65
2023/10/09 03:47:44;;;;;;;13.50;7.43;;;12.50;99.90;;;;;;5071031;28;20020;-65
2023/10/09 03:50:26;;;;;;;15.25;6.78;;;12.50;99.90;;;;;;5073050;28;20024;-65
2023/10/09 03:52:52;;;;;;;16.17;7.25;;;12.60;99.90;;;;;;5071295;28;20362;-65
2023/10/09 03:55:19;;;;;;;15.38;7.97;;;12.50;99.90;;;;;;5069860;28;20021;-65
2023/10/09 03:57:45;;;;;;;11.25;7.25;;;12.60;99.90;;;;;;5072787;28;20024;-65
2023/10/09 04:00:15;;;;;;;14.88;7.40;;;12.60;99.90;;;;;;5066984;28;20392;-65
2023/10/09 04:02:41;;;;;;;16.27;7.75;;;12.60;99.90;;;;;;5072986;28;20032;-65
2023/10/09 04:05:08;;;;;;;17.05;7.65;;;12.60;99.90;;;;;;5071949;28;20104;-65
2023/10/09 04:07:33;;;;;;;14.95;7.45;;;12.60;99.90;;;;;;5070366;28;20020;-65
2023/10/09 04:10:32;;;;;;;14.27;7.57;;;12.60;99.90;;;;;;5070641;28;20032;-66
2023/10/09 04:12:52;;;;;;;15.57;7.25;;;12.60;99.90;;;;;;5066643;28;20040;-65
2023/10/09 04:15:22;;;;;;;15.27;6.40;;;12.60;99.90;;;;;;5070788;28;20089;-65
2023/10/09 04:17:51;;;;;;;12.90;6.68;;;12.60;99.90;;;;;;5069412;28;20024;-65
2023/10/09 04:22:59;;;;;;;12.85;7.07;;;12.60;99.90;;;;;;5046645;28;20148;-65
2023/10/09 04:25:26;;;;;;;12.02;7.07;;;12.70;99.90;;;;;;5069877;28;20028;-65
2023/10/09 04:27:53;;;;;;;14.07;6.38;;;12.70;99.90;;;;;;5065542;28;20021;-65
2023/10/09 04:30:19;;;;;;;15.73;7.18;;;12.60;99.90;;;;;;5062951;28;20020;-66
2023/10/09 04:32:44;;;;;;;14.70;7.80;;;12.60;99.90;;;;;;5068112;28;20028;-65
2023/10/09 04:35:23;;;;;;;14.68;7.28;;;12.60;99.90;;;;;;5071639;28;20028;-65
2023/10/09 04:37:52;;;;;;;10.77;6.13;;;12.60;99.90;;;;;;5071319;28;20428;-66
2023/10/09 04:43:06;;;;;;;11.32;6.22;;;12.60;99.90;;;;;;5071686;28;20035;-66
2023/10/09 04:48:09;;;;;;;15.43;6.18;;;12.60;99.90;;;;;;5068557;28;20436;-65
2023/10/09 04:55:44;;;;;;;17.77;7.07;;;12.60;99.90;;;;;;5069825;28;20393;-65
2023/10/09 04:58:23;;;;;;;13.13;6.68;;;12.60;99.90;;;;;;5070098;28;20039;-65
2023/10/09 05:01:02;;;;;;;11.82;6.72;;;12.70;99.90;;;;;;5067589;28;20033;-65
2023/10/09 05:03:29;;;;;;;15.00;7.07;;;12.70;99.90;;;;;;5068305;28;20028;-66
2023/10/09 05:05:58;;;;;;;12.15;6.82;;;12.60;99.90;;;;;;5067398;28;20416;-65
2023/10/09 05:16:18;;;;;;;12.00;6.85;;;12.70;99.90;;;;;;5062090;28;20029;-65
2023/10/09 05:18:56;;;;;;;16.98;7.20;;;12.70;99.90;;;;;;5067136;28;20025;-65
2023/10/09 05:35:05;;;;;;;15.55;6.57;;;12.70;99.90;;;;;;5071217;28;20046;-67
2023/10/09 05:37:24;;;;;;;12.30;6.68;;;12.70;99.90;;;;;;5070523;28;20043;-66
2023/10/09 05:44:55;;;;;;;13.30;6.30;;;12.60;99.90;;;;;;5071813;28;20032;-68
2023/10/09 05:51:10;;;;;;;11.63;5.65;;;12.60;99.90;;;;;;5065350;28;20060;-67
2023/10/09 06:04:15;;;;;;;11.63;6.03;;;12.60;99.90;;;;;;5067576;28;20020;-67
2023/10/09 06:07:14;;;;;;;13.13;6.20;;;12.60;99.90;;;;;;5065794;28;20028;-67
2023/10/09 06:09:49;;;;;;;11.13;6.55;;;12.60;99.90;;;;;;5063038;28;20078;-64
2023/10/09 06:12:33;;;;;;;11.38;6.03;;;12.70;99.90;;;;;;5069730;28;20017;-67
2023/10/09 06:17:50;;;;;;;12.30;5.60;;;12.70;99.90;;;;;;5070688;28;20090;-67
2023/10/09 06:21:05;;;;;;;18.13;7.35;;;12.90;99.90;;;;;;5067662;28;20108;-67
2023/10/09 06:23:23;;;;;;;10.57;5.70;;;12.90;99.90;;;;;;5065701;28;20033;-66
2023/10/09 06:25:51;;;;;;;9.25;5.88;;;12.90;99.90;;;;;;5080745;28;20021;-66
2023/10/09 06:28:33;;;;;;;14.85;7.55;;;12.90;99.90;;;;;;5062529;28;20578;-66
2023/10/09 06:31:27;;;;;;;15.00;7.28;;;13.00;99.90;;;;;;5068527;28;20028;-67
2023/10/09 06:34:07;;;;;;;11.82;6.30;;;13.10;99.90;;;;;;5063739;28;20421;-66
2023/10/09 06:36:31;;;;;;;10.63;6.63;;;13.10;99.90;;;;;;5067492;28;20115;-67
2023/10/09 06:39:50;;;;;;;10.05;6.22;;;13.20;99.90;;;;;;5066499;28;20040;-67
2023/10/09 06:42:08;;;;;;;10.75;5.75;;;13.10;99.90;;;;;;5067250;28;20435;-67
2023/10/09 06:44:52;;;;;;;16.83;6.25;;;13.10;99.90;;;;;;5065315;28;20037;-67
2023/10/09 06:47:18;;;;;;;11.00;6.18;;;13.10;99.90;;;;;;5067741;28;20483;-66
2023/10/09 06:50:12;;;;;;;10.30;5.75;;;13.10;99.90;;;;;;5067330;28;20017;-66
2023/10/09 06:52:57;;;;;;;10.07;5.78;;;13.10;99.90;;;;;;5066654;28;20079;-66
2023/10/09 06:55:19;;;;;;;10.10;5.78;;;13.10;99.90;;;;;;5061308;28;20111;-66
2023/10/09 06:57:48;;;;;;;9.52;5.68;;;13.20;99.90;;;;;;5066862;28;20059;-66
2023/10/09 07:00:54;;;;;;;9.25;5.90;;;13.30;99.90;;;;;;5065805;28;20044;-66
2023/10/09 07:03:11;;;;;;;9.88;6.00;;;13.50;99.90;;;;;;5069092;28;20039;-66
2023/10/09 07:06:00;;;;;;;12.77;5.72;;;13.70;99.90;;;;;;5068476;28;20060;-66
2023/10/09 07:08:31;;;;;;;12.18;6.88;;;13.90;99.90;;;;;;5066416;28;20079;-66
2023/10/09 07:13:53;;;;;;;11.95;5.47;;;14.20;99.90;;;;;;5065101;28;20118;-66
2023/10/09 07:16:38;;;;;;;;;;;14.30;99.90;;;;;;5070910;28;20500;-66
2023/10/09 07:19:09;;;;;;;13.88;4.50;;;14.40;99.90;;;;;;5064497;28;19915;-66
2023/10/09 07:21:39;;;;;;;13.18;5.30;;;14.40;99.90;;;;;;5040389;28;20095;-66
2023/10/09 07:24:14;;;;;;;8.85;5.55;;;14.40;99.90;;;;;;5071502;28;20024;-66
2023/10/09 07:26:52;;;;;;;11.65;5.15;;;14.40;99.90;;;;;;5073159;28;20024;-66
2023/10/09 07:29:27;;;;;;;9.38;5.57;;;14.40;99.90;;;;;;5071388;28;20556;-66
2023/10/09 07:32:12;;;;;;;10.30;5.32;;;14.40;99.90;;;;;;5060874;28;20064;-66
2023/10/09 07:34:52;;;;;;;7.13;4.65;;;14.50;99.90;;;;;;5044542;28;20041;-66
2023/10/09 07:37:30;;;;;;;9.65;5.10;;;14.50;99.90;;;;;;5067972;28;20056;-66
2023/10/09 07:39:59;;;;;;;14.65;5.38;;;14.50;99.90;;;;;;5087184;28;20496;-66
2023/10/09 07:48:01;;;;;;;9.43;5.32;;;14.80;99.90;;;;;;5069179;28;20027;-66
2023/10/09 07:50:40;;;;;;;8.23;4.47;;;15.00;99.90;;;;;;5065550;28;20543;-66
2023/10/09 07:53:25;;;;;;;6.47;4.40;;;15.10;99.90;;;;;;5067097;28;20112;-67
2023/10/09 07:55:55;;;;;;;8.38;4.22;;;15.40;99.90;;;;;;5065664;28;20021;-67
2023/10/09 07:58:26;;;;;;;6.55;3.92;;;15.80;99.90;;;;;;5061147;28;20028;-66
2023/10/09 08:03:57;;;;;;;6.90;4.30;;;16.60;99.90;;;;;;5006247;28;20026;-66
2023/10/09 08:06:38;;;;;;;13.20;5.35;;;16.80;99.90;;;;;;5053079;28;20413;-66
2023/10/09 08:16:51;;;;;;;12.32;5.60;;;17.20;99.90;;;;;;5063887;28;20029;-66
2023/10/09 08:19:32;;;;;;;13.02;5.75;;;17.10;99.90;;;;;;5063511;28;20028;-66
2023/10/09 08:22:37;;;;;;;11.05;5.28;;;17.10;99.90;;;;;;5062396;28;21276;-66
2023/10/09 08:25:02;;;;;;;9.98;5.25;;;17.10;99.90;;;;;;5065292;28;20066;-66
2023/10/09 08:30:28;;;;;;;10.15;4.90;;;17.20;99.90;;;;;;5061446;28;20094;-66
2023/10/09 08:33:02;;;;;;;8.77;4.70;;;17.30;99.90;;;;;;5068656;28;20036;-66
2023/10/09 08:35:29;;;;;;;6.55;4.32;;;17.30;99.90;;;;;;5069979;28;20021;-66
2023/10/09 08:37:58;;;;;;;8.65;4.03;;;17.30;99.90;;;;;;5078198;28;20029;-66
2023/10/09 08:40:39;;;;;;;6.50;4.10;;;17.20;99.90;;;;;;5065826;28;20027;-66
2023/10/09 08:43:14;;;;;;;10.05;4.30;;;17.20;99.90;;;;;;5057629;28;20040;-66
2023/10/09 08:45:44;;;;;;;11.57;5.15;;;17.20;99.90;;;;;;5061658;28;20486;-67
2023/10/09 08:48:26;;;;;;;12.02;5.00;;;17.10;99.90;;;;;;5065786;28;20028;-66
2023/10/09 08:50:55;;;;;;;6.32;4.10;;;17.10;99.90;;;;;;5066210;28;20431;-66
2023/10/09 08:53:22;;;;;;;10.63;5.10;;;17.30;99.90;;;;;;5069072;28;20021;-66
2023/10/09 08:55:47;;;;;;;8.65;4.90;;;17.20;99.90;;;;;;5081835;28;20024;-66
2023/10/09 08:58:37;;;;;;;9.43;5.15;;;17.20;99.90;;;;;;5060750;28;20516;-67
2023/10/09 09:01:03;;;;;;;11.30;5.63;;;17.40;99.90;;;;;;5066186;28;20016;-66
2023/10/09 09:03:39;;;;;;;8.70;5.00;;;17.60;99.90;;;;;;5062930;28;20036;-66
2023/10/09 09:06:05;;;;;;;10.77;4.53;;;17.90;99.90;;;;;;5065870;28;20489;-66
2023/10/09 09:08:36;;;;;;;7.90;4.53;;;17.90;99.90;;;;;;5065445;28;20025;-65
2023/10/09 09:11:11;;;;;;;7.45;4.22;;;18.10;99.90;;;;;;5065742;28;20029;-66
2023/10/09 09:14:04;;;;;;;10.32;4.75;;;18.50;99.90;;;;;;5061969;28;20161;-66
2023/10/09 09:16:31;;;;;;;8.73;4.43;;;18.50;99.90;;;;;;5085782;28;20020;-66
2023/10/09 09:19:13;;;;;;;13.57;5.10;;;18.60;99.90;;;;;;5062262;28;20047;-66
2023/10/09 09:21:42;;;;;;;14.25;5.35;;;18.70;99.90;;;;;;5068702;28;20029;-66
2023/10/09 09:26:59;;;;;;;11.50;5.60;;;19.00;99.90;;;;;;5060615;28;20433;-66
2023/10/09 09:29:38;;;;;;;16.13;5.53;;;19.00;99.90;;;;;;5067361;28;20031;-67
2023/10/09 09:32:18;;;;;;;9.75;4.75;;;19.00;99.90;;;;;;5069340;28;20024;-67
2023/10/09 09:34:54;;;;;;;9.32;4.20;;;19.10;99.90;;;;;;5066479;28;20025;-66
2023/10/09 09:37:50;;;;;;;9.45;4.70;;;19.40;99.90;;;;;;5065899;28;20542;-66
2023/10/09 09:40:29;;;;;;;7.00;4.45;;;19.40;99.90;;;;;;5062359;28;20025;-66
2023/10/09 09:43:09;;;;;;;10.05;4.68;;;19.40;99.90;;;;;;5060072;27;20401;-66
2023/10/09 09:45:36;;;;;;;7.90;4.50;;;19.50;99.90;;;;;;5066299;28;20020;-67
2023/10/09 09:48:06;;;;;;;9.32;5.15;;;19.50;99.90;;;;;;5068365;28;20074;-66
2023/10/09 09:50:32;;;;;;;9.00;4.85;;;19.40;99.90;;;;;;5060683;28;20036;-66
2023/10/09 09:52:59;;;;;;;10.80;5.15;;;19.30;99.90;;;;;;5069982;28;20024;-67
2023/10/09 09:55:30;;;;;;;12.13;5.13;;;19.40;99.90;;;;;;5061031;28;20025;-66
2023/10/09 09:57:57;;;;;;;11.73;4.97;;;19.30;99.90;;;;;;5064415;28;20029;-66
2023/10/09 10:00:52;;;;;;;11.85;5.57;;;19.40;99.90;;;;;;5066247;28;21045;-67
2023/10/09 10:03:18;;;;;;;9.80;5.05;;;19.50;99.90;;;;;;5067553;28;20032;-66
2023/10/09 10:05:48;;;;;;;9.32;5.30;;;19.70;99.90;;;;;;5068299;28;20028;-67
2023/10/09 10:08:19;;;;;;;15.68;5.80;;;19.90;99.90;;;;;;5067846;28;20101;-67
2023/10/09 10:11:28;;;;;;;13.80;6.00;;;20.20;99.90;;;;;;5067448;28;20028;-67
2023/10/09 10:13:58;;;;;;;9.00;4.72;;;20.50;99.90;;;;;;5063346;28;20049;-66
2023/10/09 10:16:24;;;;;;;13.13;4.47;;;20.90;99.90;;;;;;5061734;28;20509;-66
2023/10/09 10:18:59;;;;;;;8.18;4.50;;;21.10;99.90;;;;;;5069137;28;20029;-66
2023/10/09 10:24:05;;;;;;;8.68;4.20;;;22.10;99.90;;;;;;5060097;28;20457;-67
2023/10/09 10:26:33;;;;;;;;;;;22.00;99.90;;;;;;5068760;28;20027;-66
2023/10/09 10:29:22;;;;;;;9.43;4.43;;;21.80;99.90;;;;;;5063732;28;20011;-67
2023/10/09 10:31:56;;;;;;;10.40;4.72;;;21.80;99.90;;;;;;5069910;28;20100;-66
2023/10/09 10:34:24;;;;;;;12.93;6.00;;;21.80;99.90;;;;;;5061009;28;20071;-66
2023/10/09 10:36:58;;;;;;;17.85;4.85;;;21.80;99.90;;;;;;5069167;28;20021;-67
2023/10/09 10:39:42;;;;;;;16.08;5.22;;;21.90;99.90;;;;;;5057882;28;20028;-67
2023/10/09 10:42:09;;;;;;;11.50;5.65;;;21.90;99.90;;;;;;5060576;28;20078;-65
2023/10/09 10:44:38;;;;;;;16.95;5.85;;;22.00;99.90;;;;;;5062755;28;20451;-65
2023/10/09 10:47:32;;;;;;;11.05;5.72;;;22.20;99.90;;;;;;5065636;28;20036;-66
2023/10/09 10:49:58;;;;;;;;;;;22.20;99.90;;;;;;5071131;28;20071;-66
2023/10/09 10:52:41;;;;;;;11.90;5.40;;;22.10;99.90;;;;;;5069730;28;19924;-65
2023/10/09 10:58:09;;;;;;;12.88;4.80;;;22.10;99.90;;;;;;5065644;28;20036;-65
2023/10/09 11:03:35;;;;;;;7.70;4.30;;;22.10;99.90;;;;;;5069738;28;20500;-65
2023/10/09 11:06:15;;;;;;;10.27;4.55;;;22.00;99.90;;;;;;5063998;28;20154;-65
2023/10/09 11:08:58;;;;;;;10.82;4.20;;;22.00;99.90;;;;;;5069134;28;20485;-65
2023/10/09 11:11:31;;;;;;;12.52;4.78;;;22.10;99.90;;;;;;5066972;28;20028;-65
2023/10/09 11:14:08;;;;;;;12.03;4.60;;;22.00;99.90;;;;;;5066132;28;20071;-67
2023/10/09 11:16:42;;;;;;;9.57;5.00;;;22.10;99.90;;;;;;5065374;28;20331;-65
2023/10/09 11:19:54;;;;;;;8.38;3.55;;;22.20;99.90;;;;;;5069378;28;20025;-65
2023/10/09 11:24:34;;;;;;;9.50;4.00;;;22.30;99.90;;;;;;5067357;28;20484;-65
2023/10/09 11:27:07;;;;;;;11.80;4.82;;;22.30;99.90;;;;;;5064561;28;20032;-65
2023/10/09 11:32:18;;;;;;;13.27;4.80;;;22.30;99.90;;;;;;5065907;28;20562;-65
2023/10/09 11:34:54;;;;;;;10.77;5.10;;;22.40;99.90;;;;;;5068308;28;20066;-65
2023/10/09 11:39:55;;;;;;;14.75;4.57;;;22.50;99.90;;;;;;5067007;28;20504;-65
2023/10/09 11:45:11;;;;;;;10.30;5.03;;;22.50;99.90;;;;;;5060681;28;20481;-65
2023/10/09 11:47:45;;;;;;;11.70;4.47;;;22.60;99.90;;;;;;5067151;28;20493;-65
2023/10/09 11:50:17;;;;;;;7.60;3.80;;;22.60;99.90;;;;;;5067728;28;20032;-66
2023/10/09 11:53:08;;;;;;;10.82;4.03;;;22.50;99.90;;;;;;5072513;28;20032;-66
2023/10/09 11:55:37;;;;;;;9.57;4.00;;;22.60;99.90;;;;;;5066419;28;20025;-66
2023/10/09 11:58:04;;;;;;;11.65;3.90;;;22.60;99.90;;;;;;5064973;28;20025;-65
2023/10/09 12:00:44;;;;;;;9.73;3.42;;;22.60;99.90;;;;;;5067950;28;20028;-66
2023/10/09 12:03:10;;;;;;;9.35;3.92;;;22.60;99.90;;;;;;5070278;28;20033;-65
2023/10/09 12:05:35;;;;;;;12.02;3.90;;;22.60;99.90;;;;;;5072163;28;20052;-65
2023/10/09 12:08:02;;;;;;;7.95;4.07;;;22.70;99.90;;;;;;5063226;28;20367;-65
2023/10/09 12:10:29;;;;;;;9.65;4.10;;;22.60;99.90;;;;;;5069056;28;20366;-66
2023/10/09 12:12:58;;;;;;;12.35;3.60;;;22.70;99.90;;;;;;5061855;28;20033;-66
2023/10/09 12:15:24;;;;;;;10.23;3.85;;;22.80;99.90;;;;;;5068352;28;20032;-66
2023/10/09 12:17:53;;;;;;;7.43;3.58;;;23.00;99.90;;;;;;5066659;28;20020;-65
2023/10/09 12:20:31;;;;;;;10.35;3.38;;;23.00;99.90;;;;;;5066961;28;20115;-65
2023/10/09 12:23:04;;;;;;;8.52;3.78;;;23.00;99.90;;;;;;5066128;28;20021;-66
2023/10/09 12:25:31;;;;;;;8.00;3.45;;;23.00;99.90;;;;;;5069078;28;20511;-65
2023/10/09 12:27:57;;;;;;;10.38;3.63;;;23.10;99.90;;;;;;5066172;28;20105;-65
2023/10/09 12:30:29;;;;;;;8.00;3.60;;;23.20;99.90;;;;;;5067615;28;20020;-66
2023/10/09 12:32:58;;;;;;;10.02;3.38;;;23.10;99.90;;;;;;5068566;28;20107;-65
2023/10/09 12:35:28;;;;;;;9.98;3.13;;;23.00;99.90;;;;;;5064581;28;20059;-66
2023/10/09 12:37:58;;;;;;;8.70;3.95;;;23.00;99.90;;;;;;5062815;28;20035;-65
2023/10/09 12:40:24;;;;;;;8.05;3.50;;;22.90;99.90;;;;;;5071102;28;20615;-65
2023/10/09 12:42:54;;;;;;;5.70;2.83;;;22.90;99.90;;;;;;5064498;28;20047;-66
2023/10/09 12:45:26;;;;;;;5.88;2.88;;;22.60;99.90;;;;;;5060819;28;20041;-65
2023/10/09 12:48:03;;;;;;;7.57;3.10;;;22.70;99.90;;;;;;5064139;28;20032;-66
2023/10/09 12:50:34;;;;;;;7.80;3.85;;;22.80;99.90;;;;;;5070979;28;20082;-66
2023/10/09 12:53:06;;;;;;;7.68;3.38;;;22.60;99.90;;;;;;5067456;28;20037;-65
2023/10/09 12:55:40;;;;;;;9.40;3.67;;;22.60;99.90;;;;;;5070984;28;20019;-65
2023/10/09 12:58:07;;;;;;;7.38;3.30;;;22.60;99.90;;;;;;5066022;28;20021;-65
2023/10/09 13:00:44;;;;;;;7.18;3.38;;;22.40;99.90;;;;;;5072384;28;20020;-66
2023/10/09 13:03:19;;;;;;;8.75;3.70;;;22.40;99.90;;;;;;5068357;28;20032;-65
2023/10/09 13:05:52;;;;;;;11.80;3.50;;;22.50;99.90;;;;;;5067014;28;20476;-65
2023/10/09 13:08:31;;;;;;;6.53;3.45;;;22.20;99.90;;;;;;5068342;28;20032;-65
2023/10/09 13:11:11;;;;;;;14.07;3.30;;;22.20;99.90;;;;;;5068439;28;20108;-66
2023/10/09 13:13:42;;;;;;;9.05;4.07;;;22.10;99.90;;;;;;5069510;28;20102;-65
2023/10/09 13:16:11;;;;;;;9.45;4.03;;;22.00;99.90;;;;;;5067501;28;20028;-65
2023/10/09 13:18:41;;;;;;;9.63;3.58;;;22.10;99.90;;;;;;5067273;28;20119;-66
2023/10/09 13:21:07;;;;;;;14.60;3.50;;;22.00;99.90;;;;;;5069216;28;20071;-65
2023/10/09 13:23:39;;;;;;;10.10;4.00;;;21.90;99.90;;;;;;5069176;28;20650;-65
2023/10/09 13:26:17;;;;;;;9.05;3.50;;;21.80;99.90;;;;;;5062485;28;20079;-65
2023/10/09 13:28:45;;;;;;;9.13;4.07;;;21.90;99.90;;;;;;5069395;28;20025;-65
2023/10/09 13:31:13;;;;;;;14.27;3.75;;;21.90;99.90;;;;;;5065975;28;20037;-66
2023/10/09 13:33:40;;;;;;;11.20;4.47;;;21.70;99.90;;;;;;5070772;28;20033;-65
2023/10/09 13:36:17;;;;;;;9.95;3.72;;;21.80;99.90;;;;;;5065628;28;20470;-65
2023/10/09 13:38:43;;;;;;;7.30;3.65;;;21.80;99.90;;;;;;5062992;28;20116;-66
2023/10/09 13:41:12;;;;;;;9.65;3.97;;;21.70;99.90;;;;;;5068958;28;20036;-66
2023/10/09 13:43:42;;;;;;;14.05;4.18;;;21.50;99.90;;;;;;5070065;28;20039;-66
2023/10/09 13:46:12;;;;;;;16.10;4.18;;;21.40;99.90;;;;;;5060020;28;20595;-65
2023/10/09 13:48:41;;;;;;;9.93;3.67;;;21.40;99.90;;;;;;5068484;28;20396;-66
2023/10/09 13:51:18;;;;;;;7.60;3.17;;;21.40;99.90;;;;;;5068388;28;20450;-66
2023/10/09 13:53:48;;;;;;;8.85;3.42;;;21.40;99.90;;;;;;5068493;28;20035;-66
2023/10/09 13:56:21;;;;;;;7.40;3.65;;;21.20;99.90;;;;;;5064288;28;20047;-65
2023/10/09 13:58:51;;;;;;;13.50;3.42;;;21.10;99.90;;;;;;5065603;28;20498;-66
2023/10/09 14:01:32;;;;;;;9.98;3.70;;;21.00;99.90;;;;;;5068433;28;20021;-65
2023/10/09 14:03:59;;;;;;;8.40;3.95;;;20.90;99.90;;;;;;5066395;28;20112;-65
2023/10/09 14:06:30;;;;;;;8.32;3.60;;;20.90;99.90;;;;;;5064611;28;20051;-65
2023/10/09 14:09:05;;;;;;;12.48;4.55;;;20.80;99.90;;;;;;5066972;28;20032;-66
2023/10/09 14:11:31;;;;;;;11.57;4.32;;;20.80;99.90;;;;;;5069153;28;20025;-65
2023/10/09 14:14:00;;;;;;;12.38;3.60;;;20.70;99.90;;;;;;5068119;28;20035;-67
2023/10/09 14:16:27;;;;;;;10.55;4.18;;;20.70;99.90;;;;;;5067599;28;20020;-65
2023/10/09 14:18:56;;;;;;;10.80;3.67;;;20.70;99.90;;;;;;5064743;28;20036;-66
2023/10/09 14:21:29;;;;;;;10.32;3.88;;;20.60;99.90;;;;;;5068392;28;20389;-65
2023/10/09 14:23:59;;;;;;;12.80;4.28;;;20.60;99.90;;;;;;5070054;28;20299;-65
2023/10/09 14:26:26;;;;;;;14.27;4.88;;;20.60;99.90;;;;;;5066650;28;20033;-66
2023/10/09 14:28:53;;;;;;;11.98;4.25;;;20.60;99.90;;;;;;5065599;28;20056;-65
2023/10/09 14:31:26;;;;;;;10.60;5.10;;;20.60;99.90;;;;;;5064864;28;20111;-65
2023/10/09 14:33:53;;;;;;;9.55;4.45;;;20.40;99.90;;;;;;5063931;28;20070;-65
2023/10/09 14:36:21;;;;;;;11.32;4.70;;;20.40;99.90;;;;;;5065064;28;20017;-66
2023/10/09 14:38:52;;;;;;;8.10;4.28;;;20.20;99.90;;;;;;5064164;28;20109;-65
2023/10/09 14:41:23;;;;;;;9.57;4.15;;;20.20;99.90;;;;;;5067560;28;20182;-65
2023/10/09 14:43:52;;;;;;;9.82;4.15;;;20.30;99.90;;;;;;5063905;28;20525;-65
2023/10/09 14:46:25;;;;;;;10.55;4.45;;;20.20;99.90;;;;;;5070847;28;20024;-65
2023/10/09 14:48:52;;;;;;;12.63;4.28;;;20.20;99.90;;;;;;5061983;28;20033;-66
2023/10/09 14:51:26;;;;;;;13.02;5.05;;;20.20;99.90;;;;;;5068386;28;20366;-65
2023/10/09 14:53:57;;;;;;;;;;;20.30;99.90;;;;;;5062497;28;20024;-65
2023/10/09 14:56:28;;;;;;;11.75;4.80;;;20.30;99.90;;;;;;5067195;28;20413;-65
2023/10/09 14:58:58;;;;;;;13.73;4.90;;;20.30;99.90;;;;;;5051262;28;20056;-65
2023/10/09 15:01:31;;;;;;;13.70;4.30;;;20.30;99.90;;;;;;5069837;28;20115;-65